createdAt,value
2017-07-19T00:01:20.092Z,5.93
2017-07-19T00:03:47.644Z,5.87
2017-07-19T00:06:15.178Z,5.77
2017-07-19T00:08:42.893Z,6.23
2017-07-19T00:11:10.463Z,5.47
2017-07-19T00:13:38.049Z,6.13
2017-07-19T00:16:05.587Z,7.33
2017-07-19T00:18:33.143Z,5.90
2017-07-19T00:21:00.673Z,5.37
2017-07-19T00:23:28.211Z,5.83
2017-07-19T00:25:56.591Z,6.07
2017-07-19T00:28:24.934Z,6.40
2017-07-19T00:30:52.467Z,6.07
2017-07-19T00:33:20.002Z,5.93
2017-07-19T00:35:48.334Z,6.00
2017-07-19T00:38:15.890Z,5.60
2017-07-19T00:40:43.546Z,5.53
2017-07-19T00:43:11.143Z,5.73
2017-07-19T00:45:38.702Z,5.70
2017-07-19T00:48:06.238Z,6.07
2017-07-19T00:50:33.823Z,5.50
2017-07-19T00:53:01.563Z,6.10
2017-07-19T00:55:29.221Z,5.80
2017-07-19T00:57:56.799Z,5.73
2017-07-19T01:00:24.375Z,5.50
2017-07-19T01:02:52.011Z,5.80
2017-07-19T01:05:19.603Z,6.13
2017-07-19T01:07:47.230Z,5.70
2017-07-19T01:10:14.790Z,5.50
2017-07-19T01:12:42.322Z,5.80
2017-07-19T01:15:09.918Z,6.10
2017-07-19T01:17:37.474Z,5.73
2017-07-19T01:20:18.355Z,6.30
2017-07-19T01:22:45.909Z,5.93
2017-07-19T01:25:13.477Z,5.80
2017-07-19T01:27:41.014Z,5.97
2017-07-19T01:30:08.545Z,6.50
2017-07-19T01:32:36.867Z,6.40
2017-07-19T01:35:04.398Z,6.10
2017-07-19T01:37:32.088Z,6.07
2017-07-19T01:39:59.642Z,6.40
2017-07-19T01:42:27.224Z,6.93
2017-07-19T01:44:54.868Z,6.13
2017-07-19T01:47:22.433Z,6.23
2017-07-19T01:49:49.989Z,6.40
2017-07-19T01:52:17.559Z,6.40
2017-07-19T01:54:45.096Z,6.20
2017-07-19T01:57:12.671Z,6.23
2017-07-19T01:59:40.198Z,5.90
2017-07-19T02:02:08.618Z,6.53
2017-07-19T02:04:36.178Z,6.57
2017-07-19T02:07:03.743Z,6.20
2017-07-19T02:09:31.269Z,6.57
2017-07-19T02:11:59.595Z,6.13
2017-07-19T02:14:27.133Z,7.10
2017-07-19T02:16:54.693Z,7.80
2017-07-19T02:19:22.263Z,6.53
2017-07-19T02:21:49.819Z,6.60
2017-07-19T02:24:17.355Z,6.47
2017-07-19T02:26:44.943Z,7.10
2017-07-19T02:29:12.475Z,6.67
2017-07-19T02:31:40.035Z,6.37
2017-07-19T02:34:07.626Z,6.80
2017-07-19T02:36:35.293Z,7.23
2017-07-19T02:39:02.826Z,6.63
2017-07-19T02:41:30.418Z,7.00
2017-07-19T02:43:57.955Z,6.77
2017-07-19T02:46:25.605Z,7.37
2017-07-19T02:48:53.198Z,7.70
2017-07-19T02:51:20.726Z,7.10
2017-07-19T02:53:48.264Z,6.83
2017-07-19T02:56:16.603Z,7.40
2017-07-19T02:58:44.167Z,7.10
2017-07-19T03:01:11.726Z,7.77
2017-07-19T03:03:39.284Z,7.23
2017-07-19T03:06:06.822Z,7.43
2017-07-19T03:08:34.382Z,7.50
2017-07-19T03:11:01.967Z,7.20
2017-07-19T03:13:29.528Z,7.67
2017-07-19T03:15:57.082Z,7.50
2017-07-19T03:18:24.642Z,8.30
2017-07-19T03:20:52.210Z,9.20
2017-07-19T03:23:19.764Z,8.50
2017-07-19T03:25:47.303Z,8.20
2017-07-19T03:28:14.858Z,9.20
2017-07-19T03:30:42.395Z,9.30
2017-07-19T03:33:10.822Z,9.37
2017-07-19T03:35:38.406Z,7.50
2017-07-19T03:38:05.992Z,8.67
2017-07-19T03:40:33.519Z,8.70
2017-07-19T03:43:01.067Z,7.57
2017-07-19T03:45:28.598Z,7.70
2017-07-19T03:47:56.195Z,7.73
2017-07-19T03:50:23.753Z,7.87
2017-07-19T03:52:51.422Z,8.33
2017-07-19T03:55:18.978Z,8.37
2017-07-19T03:57:46.524Z,8.07
2017-07-19T04:00:14.110Z,9.67
2017-07-19T04:02:41.670Z,7.10
2017-07-19T04:05:09.202Z,8.63
2017-07-19T04:07:36.778Z,8.23
2017-07-19T04:10:04.346Z,9.20
2017-07-19T04:12:31.889Z,7.90
2017-07-19T04:14:59.434Z,8.80
2017-07-19T04:17:26.998Z,8.70
2017-07-19T04:19:54.591Z,9.50
2017-07-19T04:22:22.147Z,8.40
2017-07-19T04:24:49.680Z,8.57
2017-07-19T04:27:17.264Z,8.20
2017-07-19T04:29:44.830Z,8.87
2017-07-19T04:32:12.390Z,8.50
2017-07-19T04:34:39.949Z,7.87
2017-07-19T04:37:07.520Z,7.60
2017-07-19T04:39:35.069Z,7.90
2017-07-19T04:42:02.631Z,7.70
2017-07-19T04:44:30.194Z,8.97
2017-07-19T04:46:57.735Z,8.20
2017-07-19T04:49:25.275Z,7.30
2017-07-19T04:51:52.811Z,7.93
2017-07-19T04:54:21.118Z,8.60
2017-07-19T04:56:48.658Z,8.10
2017-07-19T04:59:16.970Z,8.33
2017-07-19T05:01:44.549Z,8.77
2017-07-19T05:04:12.106Z,9.00
2017-07-19T05:06:39.674Z,7.33
2017-07-19T05:09:20.547Z,8.67
2017-07-19T05:11:48.077Z,8.43
2017-07-19T05:14:15.677Z,8.57
2017-07-19T05:16:43.215Z,8.77
2017-07-19T05:19:10.789Z,7.60
2017-07-19T05:21:38.317Z,8.80
2017-07-19T05:24:05.923Z,8.30
2017-07-19T05:26:33.474Z,7.97
2017-07-19T05:29:11.170Z,7.47
2017-07-19T05:31:38.726Z,7.93
2017-07-19T05:34:06.283Z,7.30
2017-07-19T05:36:33.854Z,7.73
2017-07-19T05:39:01.406Z,8.40
2017-07-19T05:41:28.971Z,7.60
2017-07-19T05:43:56.635Z,7.53
2017-07-19T05:46:24.165Z,8.50
2017-07-19T05:48:51.726Z,7.20
2017-07-19T05:51:19.258Z,6.90
2017-07-19T05:53:46.822Z,7.50
2017-07-19T05:56:14.440Z,7.33
2017-07-19T05:58:42.100Z,7.40
2017-07-19T06:01:09.634Z,8.00
2017-07-19T06:03:37.177Z,7.70
2017-07-19T06:06:05.511Z,8.03
2017-07-19T06:08:33.046Z,7.17
2017-07-19T06:11:00.582Z,8.33
2017-07-19T06:13:28.910Z,8.50
2017-07-19T06:15:56.472Z,7.17
2017-07-19T06:18:24.035Z,7.20
2017-07-19T06:20:51.594Z,8.20
2017-07-19T06:23:19.149Z,8.57
2017-07-19T06:25:46.678Z,8.07
2017-07-19T06:28:14.275Z,7.87
2017-07-19T06:30:41.830Z,7.93
2017-07-19T06:33:09.386Z,7.40
2017-07-19T06:35:36.921Z,8.87
2017-07-19T06:38:04.510Z,8.40
2017-07-19T06:40:32.168Z,8.73
2017-07-19T06:42:59.736Z,8.70
2017-07-19T06:45:27.393Z,8.53
2017-07-19T06:47:54.957Z,7.97
2017-07-19T06:50:22.615Z,7.50
2017-07-19T06:52:50.174Z,8.47
2017-07-19T06:55:17.746Z,8.20
2017-07-19T06:57:45.319Z,7.60
2017-07-19T07:00:12.992Z,9.13
2017-07-19T07:02:40.534Z,8.00
2017-07-19T07:05:08.199Z,7.00
2017-07-19T07:07:35.754Z,6.87
2017-07-19T07:10:03.316Z,7.60
2017-07-19T07:12:30.856Z,8.23
2017-07-19T07:14:58.439Z,6.43
2017-07-19T07:17:26.002Z,7.87
2017-07-19T07:19:53.562Z,7.20
2017-07-19T07:22:21.112Z,7.20
2017-07-19T07:24:48.773Z,7.47
2017-07-19T07:27:16.299Z,7.50
2017-07-19T07:29:44.630Z,6.60
2017-07-19T07:32:12.390Z,6.93
2017-07-19T07:34:39.932Z,7.20
2017-07-19T07:37:07.466Z,6.80
2017-07-19T07:39:35.772Z,7.20
2017-07-19T07:42:03.306Z,7.20
2017-07-19T07:44:31.003Z,6.47
2017-07-19T07:46:58.537Z,6.17
2017-07-19T07:49:26.068Z,6.67
2017-07-19T07:51:53.598Z,6.77
2017-07-19T07:54:21.146Z,5.83
2017-07-19T07:56:48.702Z,6.57
2017-07-19T07:59:16.277Z,5.97
2017-07-19T08:01:43.934Z,6.90
2017-07-19T08:04:11.485Z,5.90
2017-07-19T08:06:39.058Z,6.40
2017-07-19T08:09:06.623Z,6.40
2017-07-19T08:11:34.183Z,6.60
2017-07-19T08:14:01.741Z,6.00
2017-07-19T08:16:29.295Z,6.17
2017-07-19T08:21:24.427Z,5.77
2017-07-19T08:23:51.989Z,6.33
2017-07-19T08:26:19.650Z,6.90
2017-07-19T08:28:47.181Z,6.07
2017-07-19T08:31:14.762Z,6.70
2017-07-19T08:33:42.294Z,6.00
2017-07-19T08:36:09.846Z,5.43
2017-07-19T08:38:37.445Z,6.30
2017-07-19T08:41:04.999Z,6.27
2017-07-19T08:43:32.818Z,6.43
2017-07-19T08:46:00.439Z,6.30
2017-07-19T08:48:27.970Z,6.90
2017-07-19T08:50:55.558Z,6.20
2017-07-19T08:53:23.089Z,6.50
2017-07-19T08:55:50.674Z,6.30
2017-07-19T08:58:18.254Z,6.30
2017-07-19T09:06:36.638Z,6.33
2017-07-19T09:09:04.173Z,6.00
2017-07-19T09:11:31.763Z,6.20
2017-07-19T09:13:59.319Z,5.70
2017-07-19T09:16:26.887Z,5.67
2017-07-19T09:18:54.552Z,6.20
2017-07-19T09:21:22.102Z,6.17
2017-07-19T09:23:49.661Z,5.70
2017-07-19T09:26:17.214Z,6.07
2017-07-19T09:28:44.754Z,5.87
2017-07-19T09:31:12.338Z,6.47
2017-07-19T09:33:39.871Z,6.20
2017-07-19T09:36:07.466Z,5.87
2017-07-19T09:38:35.023Z,6.47
2017-07-19T09:41:02.554Z,6.30
2017-07-19T09:43:30.083Z,6.53
2017-07-19T09:45:57.710Z,6.40
2017-07-19T09:48:25.266Z,6.07
2017-07-19T09:50:52.790Z,6.07
2017-07-19T09:53:20.382Z,6.40
2017-07-19T09:55:47.946Z,7.23
2017-07-19T09:58:15.604Z,7.00
2017-07-19T10:00:43.294Z,7.00
2017-07-19T10:03:10.817Z,5.80
2017-07-19T10:05:38.394Z,7.60
2017-07-19T10:08:05.955Z,6.20
2017-07-19T10:10:33.515Z,6.30
2017-07-19T10:13:01.056Z,6.43
2017-07-19T10:15:28.590Z,5.70
2017-07-19T10:17:57.013Z,6.43
2017-07-19T10:20:24.550Z,6.70
2017-07-19T10:22:52.134Z,6.47
2017-07-19T10:25:19.706Z,6.53
2017-07-19T10:27:47.275Z,7.53
2017-07-19T10:30:14.814Z,7.50
2017-07-19T10:32:42.373Z,6.30
2017-07-19T10:35:10.771Z,6.33
2017-07-19T10:37:38.417Z,6.80
2017-07-19T10:40:05.983Z,6.30
2017-07-19T10:42:33.545Z,5.77
2017-07-19T10:45:01.414Z,6.80
2017-07-19T10:47:29.022Z,6.87
2017-07-19T10:49:56.549Z,6.70
2017-07-19T10:52:24.197Z,6.57
2017-07-19T10:54:51.766Z,7.10
2017-07-19T10:57:19.319Z,7.60
2017-07-19T10:59:46.874Z,6.10
2017-07-19T11:02:14.476Z,6.70
2017-07-19T11:04:42.017Z,6.50
2017-07-19T11:07:09.559Z,7.20
2017-07-19T11:09:37.105Z,6.70
2017-07-19T11:12:04.695Z,6.97
2017-07-19T11:14:32.247Z,6.97
2017-07-19T11:16:59.805Z,6.00
2017-07-19T11:19:27.338Z,6.70
2017-07-19T11:21:54.885Z,6.77
2017-07-19T11:24:23.300Z,6.67
2017-07-19T11:26:50.838Z,6.90
2017-07-19T11:29:18.366Z,6.90
2017-07-19T11:31:53.457Z,7.20
2017-07-19T11:34:21.026Z,7.30
2017-07-19T11:36:48.589Z,7.50
2017-07-19T11:39:16.171Z,6.83
2017-07-19T11:41:43.806Z,7.70
2017-07-19T11:44:11.358Z,6.80
2017-07-19T11:46:38.939Z,7.20
2017-07-19T11:49:06.594Z,6.43
2017-07-19T11:51:34.130Z,6.63
2017-07-19T11:54:01.727Z,6.60
2017-07-19T11:56:29.283Z,6.30
2017-07-19T11:58:56.846Z,6.53
2017-07-19T12:01:24.402Z,7.13
2017-07-19T12:03:52.072Z,7.00
2017-07-19T12:06:19.622Z,6.23
2017-07-19T12:08:47.183Z,7.10
2017-07-19T12:11:14.748Z,6.80
2017-07-19T12:13:42.313Z,7.50
2017-07-19T12:16:09.858Z,6.30
2017-07-19T12:18:37.430Z,7.00
2017-07-19T12:21:04.986Z,6.60
2017-07-19T12:23:32.645Z,6.83
2017-07-19T12:26:00.190Z,7.50
2017-07-19T12:28:27.766Z,7.03
2017-07-19T12:30:55.328Z,7.67
2017-07-19T12:33:22.994Z,7.23
2017-07-19T12:35:50.561Z,7.07
2017-07-19T12:38:18.115Z,6.83
2017-07-19T12:40:45.674Z,7.13
2017-07-19T12:43:13.243Z,6.63
2017-07-19T12:45:40.794Z,7.70
2017-07-19T12:48:08.355Z,7.00
2017-07-19T12:50:35.928Z,6.80
2017-07-19T12:53:03.458Z,6.70
2017-07-19T12:55:31.021Z,6.90
2017-07-19T12:57:58.615Z,6.90
2017-07-19T13:00:26.260Z,7.50
2017-07-19T13:02:53.789Z,7.43
2017-07-19T13:05:21.390Z,7.00
2017-07-19T13:07:48.946Z,7.27
2017-07-19T13:10:16.477Z,6.47
2017-07-19T13:12:44.011Z,6.97
2017-07-19T13:15:12.351Z,6.87
2017-07-19T13:17:39.916Z,7.20
2017-07-19T13:20:07.468Z,6.83
2017-07-19T13:22:34.999Z,7.33
2017-07-19T13:25:02.532Z,7.83
2017-07-19T13:27:30.870Z,7.47
2017-07-19T13:29:58.406Z,7.07
2017-07-19T13:32:25.962Z,6.97
2017-07-19T13:34:53.494Z,7.40
2017-07-19T13:37:21.831Z,7.43
2017-07-19T13:39:49.378Z,7.23
2017-07-19T13:42:16.916Z,6.83
2017-07-19T13:44:44.499Z,7.20
2017-07-19T13:47:12.030Z,6.80
2017-07-19T13:49:39.571Z,6.70
2017-07-19T13:52:07.871Z,6.90
2017-07-19T13:54:35.462Z,7.20
2017-07-19T13:57:02.995Z,6.57
2017-07-19T13:59:30.577Z,7.10
2017-07-19T14:01:58.155Z,7.57
2017-07-19T14:04:25.820Z,7.17
2017-07-19T14:06:53.372Z,8.37
2017-07-19T14:09:20.940Z,7.20
2017-07-19T14:11:48.481Z,6.40
2017-07-19T14:14:16.015Z,7.70
2017-07-19T14:16:43.619Z,7.70
2017-07-19T14:19:11.143Z,6.30
2017-07-19T14:21:38.730Z,7.20
2017-07-19T14:24:06.294Z,7.80
2017-07-19T14:26:33.858Z,7.23
2017-07-19T14:29:01.390Z,6.73
2017-07-19T14:31:28.926Z,7.27
2017-07-19T14:33:57.219Z,6.77
2017-07-19T14:36:24.823Z,7.70
2017-07-19T14:38:52.353Z,6.60
2017-07-19T14:41:19.944Z,6.80
2017-07-19T14:43:47.474Z,6.80
2017-07-19T14:46:15.078Z,7.00
2017-07-19T14:48:42.721Z,7.00
2017-07-19T14:51:10.278Z,6.70
2017-07-19T14:53:37.961Z,6.57
2017-07-19T14:56:05.535Z,7.30
2017-07-19T14:58:33.169Z,6.50
2017-07-19T15:01:00.722Z,7.07
2017-07-19T15:03:28.257Z,6.70
2017-07-19T15:05:55.852Z,7.03
2017-07-19T15:08:23.405Z,7.03
2017-07-19T15:10:50.979Z,6.93
2017-07-19T15:13:18.502Z,7.17
2017-07-19T15:15:46.066Z,7.00
2017-07-19T15:18:13.594Z,6.67
2017-07-19T15:20:42.030Z,6.93
2017-07-19T15:23:09.589Z,6.67
2017-07-19T15:25:37.159Z,7.10
2017-07-19T15:28:04.689Z,6.20
2017-07-19T15:30:32.282Z,7.37
2017-07-19T15:32:59.825Z,7.00
2017-07-19T15:35:27.398Z,7.37
2017-07-19T15:37:55.005Z,7.20
2017-07-19T15:40:23.337Z,7.93
2017-07-19T15:42:50.893Z,6.80
2017-07-19T15:45:18.431Z,6.50
2017-07-19T15:47:46.016Z,7.07
2017-07-19T15:50:13.575Z,7.43
2017-07-19T15:52:41.142Z,6.20
2017-07-19T15:55:08.670Z,7.10
2017-07-19T15:57:36.208Z,7.27
2017-07-19T16:00:04.538Z,6.90
2017-07-19T16:02:32.066Z,7.30
2017-07-19T16:04:59.602Z,6.33
2017-07-19T16:07:27.904Z,6.10
2017-07-19T16:12:48.602Z,5.93
2017-07-19T16:15:16.929Z,6.60
2017-07-19T16:17:44.458Z,6.83
2017-07-19T16:20:12.048Z,7.00
2017-07-19T16:22:39.630Z,7.30
2017-07-19T16:25:07.179Z,7.17
2017-07-19T16:27:34.746Z,7.70
2017-07-19T16:30:02.307Z,7.20
2017-07-19T16:32:30.058Z,6.87
2017-07-19T16:34:57.633Z,7.43
2017-07-19T16:37:25.189Z,6.90
2017-07-19T16:39:52.717Z,7.23
2017-07-19T16:42:20.307Z,7.50
2017-07-19T16:44:47.842Z,7.03
2017-07-19T16:47:15.521Z,7.47
2017-07-19T16:49:43.054Z,7.00
2017-07-19T16:52:10.615Z,7.07
2017-07-19T16:54:38.153Z,7.27
2017-07-19T16:57:06.475Z,7.57
2017-07-19T16:59:34.006Z,7.00
2017-07-19T17:02:02.436Z,7.83
2017-07-19T17:04:29.983Z,7.53
2017-07-19T17:06:57.551Z,7.60
2017-07-19T17:09:25.085Z,6.90
2017-07-19T17:11:52.638Z,7.30
2017-07-19T17:14:20.172Z,7.13
2017-07-19T17:16:47.714Z,7.90
2017-07-19T17:19:15.248Z,7.70
2017-07-19T17:21:42.834Z,8.53
2017-07-19T17:24:10.358Z,7.40
2017-07-19T17:26:37.930Z,7.83
2017-07-19T17:29:05.459Z,8.00
2017-07-19T17:31:32.993Z,7.80
2017-07-19T17:34:00.722Z,8.27
2017-07-19T17:36:28.282Z,8.60
2017-07-19T17:38:55.938Z,8.13
2017-07-19T17:41:23.470Z,7.90
2017-07-19T17:43:51.266Z,7.70
2017-07-19T17:46:18.802Z,7.43
2017-07-19T17:48:46.396Z,7.20
2017-07-19T17:51:13.930Z,6.70
2017-07-19T17:59:53.954Z,6.80
2017-07-19T18:05:12.215Z,8.00
2017-07-19T18:07:40.272Z,7.97
2017-07-19T18:10:07.846Z,7.50
2017-07-19T18:12:35.382Z,7.03
2017-07-19T18:15:02.919Z,7.20
2017-07-19T18:20:47.033Z,6.60
2017-07-19T18:23:22.580Z,6.80
2017-07-19T18:25:50.116Z,6.70
2017-07-19T18:28:17.910Z,8.37
2017-07-19T18:30:45.441Z,7.43
2017-07-19T18:33:13.030Z,6.33
2017-07-19T18:35:40.590Z,6.90
2017-07-19T18:38:08.262Z,7.10
2017-07-19T18:40:35.792Z,5.47
2017-07-19T18:43:03.367Z,5.90
2017-07-19T18:45:30.934Z,5.80
2017-07-19T18:47:58.470Z,5.67
2017-07-19T18:50:26.046Z,5.90
2017-07-19T18:52:53.583Z,5.93
2017-07-19T18:55:21.887Z,6.77
2017-07-19T18:57:49.421Z,7.10
2017-07-19T19:00:17.006Z,6.70
2017-07-19T19:02:44.530Z,5.87
2017-07-19T19:05:12.821Z,6.00
2017-07-19T19:07:40.420Z,6.00
2017-07-19T19:10:07.946Z,6.70
2017-07-19T19:12:35.502Z,6.03
2017-07-19T19:15:03.033Z,5.93
2017-07-19T19:17:30.574Z,6.40
2017-07-19T19:19:58.214Z,6.90
2017-07-19T19:22:25.748Z,6.83
2017-07-19T19:24:53.294Z,6.70
2017-07-19T19:27:21.623Z,7.67
2017-07-19T19:29:49.210Z,6.53
2017-07-19T19:32:16.744Z,7.33
2017-07-19T19:34:44.300Z,6.57
2017-07-19T19:37:11.867Z,7.27
2017-07-19T19:39:39.514Z,8.80
2017-07-19T19:42:07.075Z,8.00
2017-07-19T19:44:34.626Z,7.50
2017-07-19T19:47:02.205Z,7.80
2017-07-19T19:49:29.757Z,6.80
2017-07-19T19:51:57.332Z,7.20
2017-07-19T19:54:24.866Z,7.90
2017-07-19T19:56:52.399Z,7.50
2017-07-19T19:59:20.702Z,8.00
2017-07-19T20:01:48.225Z,6.70
2017-07-19T20:04:15.759Z,7.30
2017-07-19T20:06:43.518Z,8.20
2017-07-19T20:09:11.042Z,8.80
2017-07-19T20:11:38.570Z,7.93
2017-07-19T20:14:06.101Z,8.60
2017-07-19T20:16:33.660Z,8.40
2017-07-19T20:19:01.192Z,9.17
2017-07-19T20:21:28.763Z,8.83
2017-07-19T20:23:56.331Z,8.60
2017-07-19T20:26:23.898Z,8.50
2017-07-19T20:28:51.456Z,7.47
2017-07-19T20:31:19.009Z,8.63
2017-07-19T20:33:46.542Z,7.80
2017-07-19T20:36:14.108Z,8.20
2017-07-19T20:38:41.638Z,7.60
2017-07-19T20:41:09.261Z,8.17
2017-07-19T20:43:36.791Z,8.17
2017-07-19T20:46:04.380Z,8.23
2017-07-19T20:48:31.938Z,8.23
2017-07-19T20:50:59.597Z,8.20
2017-07-19T20:53:27.161Z,8.50
2017-07-19T20:55:54.827Z,9.80
2017-07-19T20:58:22.385Z,8.73
2017-07-19T21:00:49.943Z,8.03
2017-07-19T21:03:17.475Z,7.60
2017-07-19T21:05:45.006Z,7.00
2017-07-19T21:08:12.624Z,8.50
2017-07-19T21:10:40.245Z,8.20
2017-07-19T21:13:08.574Z,7.60
2017-07-19T21:15:36.134Z,8.50
2017-07-19T21:18:03.706Z,8.00
2017-07-19T21:20:31.262Z,7.93
2017-07-19T21:22:58.909Z,8.03
2017-07-19T21:25:26.583Z,8.33
2017-07-19T21:27:54.138Z,8.17
2017-07-19T21:30:21.688Z,8.67
2017-07-19T21:32:49.261Z,8.93
2017-07-19T21:35:16.786Z,8.23
2017-07-19T21:37:44.342Z,8.87
2017-07-19T21:40:12.656Z,8.70
2017-07-19T21:42:40.222Z,7.70
2017-07-19T21:45:07.791Z,7.73
2017-07-19T21:47:35.541Z,8.00
2017-07-19T21:50:03.075Z,7.97
2017-07-19T21:52:30.666Z,8.00
2017-07-19T21:54:58.198Z,8.60
2017-07-19T21:57:25.795Z,7.93
2017-07-19T21:59:53.326Z,7.60
2017-07-19T22:02:20.927Z,7.50
2017-07-19T22:04:48.482Z,7.70
2017-07-19T22:07:16.138Z,7.73
2017-07-19T22:09:43.701Z,7.80
2017-07-19T22:12:11.256Z,7.90
2017-07-19T22:14:38.819Z,7.07
2017-07-19T22:17:06.377Z,7.37
2017-07-19T22:19:33.937Z,8.60
2017-07-19T22:22:01.605Z,7.87
2017-07-19T22:24:29.260Z,7.20
2017-07-19T22:26:56.836Z,7.43
2017-07-19T22:29:24.366Z,8.07
2017-07-19T22:31:51.958Z,7.23
2017-07-19T22:34:19.517Z,8.93
2017-07-19T22:36:47.083Z,9.20
2017-07-19T22:39:14.614Z,7.97
2017-07-19T22:41:42.143Z,8.20
2017-07-19T22:44:10.468Z,8.10
2017-07-19T22:46:38.039Z,8.23
2017-07-19T22:49:05.602Z,8.33
2017-07-19T22:51:33.163Z,8.67
2017-07-19T22:54:00.926Z,8.37
2017-07-19T22:56:28.458Z,8.87
2017-07-19T22:58:55.990Z,7.80
2017-07-19T23:01:24.317Z,9.70
2017-07-19T23:03:51.878Z,9.20
2017-07-19T23:06:19.417Z,9.20
2017-07-19T23:08:47.006Z,8.40
2017-07-19T23:11:14.557Z,9.43
2017-07-19T23:13:42.123Z,8.30
2017-07-19T23:16:09.658Z,9.67
2017-07-19T23:18:37.253Z,9.53
2017-07-19T23:21:04.798Z,10.00
2017-07-19T23:23:32.387Z,9.70
2017-07-19T23:25:59.931Z,9.97
2017-07-19T23:28:27.466Z,10.30
2017-07-19T23:30:55.002Z,10.40
2017-07-19T23:33:23.303Z,10.40
2017-07-19T23:35:50.995Z,10.33
2017-07-19T23:38:18.657Z,11.10
2017-07-19T23:40:46.214Z,10.03
2017-07-19T23:43:13.788Z,9.80
2017-07-19T23:45:41.343Z,9.73
2017-07-19T23:48:09.003Z,10.00
2017-07-19T23:50:36.542Z,9.80
2017-07-19T23:53:04.099Z,9.50
2017-07-19T23:55:31.686Z,10.10
2017-07-19T23:57:59.258Z,9.30
